createdAt,value
2018-05-17T00:01:23.390Z,98867
2018-05-17T00:03:29.222Z,98872
2018-05-17T00:05:34.417Z,98867
2018-05-17T00:07:40.561Z,98872
2018-05-17T00:09:45.737Z,98873
2018-05-17T00:11:51.373Z,98884
2018-05-17T00:13:56.965Z,98877
2018-05-17T00:16:02.903Z,98891
2018-05-17T00:18:10.432Z,98893
2018-05-17T00:20:18.067Z,98874
2018-05-17T00:22:24.638Z,98881
2018-05-17T00:24:29.829Z,98882
2018-05-17T00:26:36.220Z,98887
2018-05-17T00:28:41.427Z,98883
2018-05-17T00:30:46.575Z,98867
2018-05-17T00:32:53.032Z,98882
2018-05-17T00:34:58.865Z,98875
2018-05-17T00:37:04.192Z,98867
2018-05-17T00:39:12.665Z,98868
2018-05-17T00:41:19.168Z,98860
2018-05-17T00:43:24.866Z,98865
2018-05-17T00:45:30.641Z,98863
2018-05-17T00:47:35.872Z,98871
2018-05-17T00:49:41.041Z,98862
2018-05-17T00:51:47.333Z,98852
2018-05-17T00:53:52.593Z,98852
2018-05-17T00:55:57.815Z,98857
2018-05-17T00:58:03.720Z,98862
2018-05-17T01:00:12.298Z,98853
2018-05-17T01:02:19.904Z,98863
2018-05-17T01:04:26.593Z,98875
2018-05-17T01:06:31.961Z,98878
2018-05-17T01:08:37.302Z,98872
2018-05-17T01:10:42.920Z,98867
2018-05-17T01:12:48.839Z,98873
2018-05-17T01:14:54.622Z,98871
2018-05-17T01:17:00.892Z,98879
2018-05-17T01:19:07.988Z,98886
2018-05-17T01:21:17.048Z,98887
2018-05-17T01:23:24.534Z,98889
2018-05-17T01:25:30.989Z,98895
2018-05-17T01:27:36.275Z,98872
2018-05-17T01:29:42.360Z,98882
2018-05-17T01:31:47.531Z,98889
2018-05-17T01:33:52.756Z,98886
2018-05-17T01:35:58.204Z,98880
2018-05-17T01:38:15.047Z,98885
2018-05-17T01:40:23.127Z,98904
2018-05-17T01:42:29.405Z,98898
2018-05-17T01:44:34.694Z,98893
2018-05-17T01:46:40.666Z,98895
2018-05-17T01:48:46.215Z,98897
2018-05-17T01:50:51.782Z,98913
2018-05-17T01:52:57.179Z,98897
2018-05-17T01:55:02.643Z,98891
2018-05-17T01:57:09.029Z,98890
2018-05-17T01:59:16.655Z,98907
2018-05-17T02:01:22.797Z,98915
2018-05-17T02:03:28.107Z,98902
2018-05-17T02:05:33.480Z,98909
2018-05-17T02:07:38.833Z,98902
2018-05-17T02:09:44.801Z,98909
2018-05-17T02:11:50.005Z,98893
2018-05-17T02:13:55.623Z,98911
2018-05-17T02:16:00.758Z,98906
2018-05-17T02:18:06.719Z,98915
2018-05-17T02:20:15.507Z,98915
2018-05-17T02:22:22.532Z,98911
2018-05-17T02:24:28.390Z,98907
2018-05-17T02:26:33.793Z,98914
2018-05-17T02:28:39.294Z,98920
2018-05-17T02:30:44.684Z,98911
2018-05-17T02:32:50.243Z,98934
2018-05-17T02:34:56.063Z,98941
2018-05-17T02:37:02.026Z,98930
2018-05-17T02:39:09.703Z,98928
2018-05-17T02:41:18.063Z,98927
2018-05-17T02:43:24.473Z,98915
2018-05-17T02:45:31.485Z,98938
2018-05-17T02:47:38.879Z,98933
2018-05-17T02:49:44.366Z,98934
2018-05-17T02:51:49.776Z,98936
2018-05-17T02:53:55.381Z,98943
2018-05-17T02:56:01.174Z,98952
2018-05-17T02:58:08.350Z,98931
2018-05-17T03:00:16.388Z,98927
2018-05-17T03:02:23.500Z,98936
2018-05-17T03:04:28.987Z,98951
2018-05-17T03:06:34.509Z,98932
2018-05-17T03:08:40.478Z,98928
2018-05-17T03:10:46.234Z,98940
2018-05-17T03:12:52.156Z,98947
2018-05-17T03:14:57.910Z,98945
2018-05-17T03:17:03.902Z,98946
2018-05-17T03:19:11.377Z,98937
2018-05-17T03:21:18.046Z,98951
2018-05-17T03:23:25.844Z,98952
2018-05-17T03:25:31.316Z,98956
2018-05-17T03:27:36.527Z,98946
2018-05-17T03:29:43.037Z,98959
2018-05-17T03:31:48.760Z,98939
2018-05-17T03:33:55.935Z,98945
2018-05-17T03:36:01.578Z,98956
2018-05-17T03:38:08.624Z,98958
2018-05-17T03:40:17.306Z,98950
2018-05-17T03:42:25.278Z,98958
2018-05-17T03:44:30.534Z,98952
2018-05-17T03:46:36.141Z,98961
2018-05-17T03:48:42.348Z,98968
2018-05-17T03:50:48.157Z,98964
2018-05-17T03:52:53.900Z,98964
2018-05-17T03:54:59.048Z,98963
2018-05-17T03:57:04.613Z,98957
2018-05-17T03:59:15.384Z,98957
2018-05-17T04:01:31.510Z,98969
2018-05-17T04:05:48.200Z,98980
2018-05-17T04:07:53.441Z,98975
2018-05-17T04:09:59.210Z,98976
2018-05-17T04:12:05.256Z,98974
2018-05-17T04:14:14.965Z,98979
2018-05-17T04:16:22.808Z,98970
2018-05-17T04:18:29.014Z,98977
2018-05-17T04:20:35.136Z,98998
2018-05-17T04:22:41.196Z,98975
2018-05-17T04:24:46.723Z,98981
2018-05-17T04:26:52.162Z,98982
2018-05-17T04:28:58.090Z,98975
2018-05-17T04:31:03.487Z,99004
2018-05-17T04:33:12.256Z,98982
2018-05-17T04:35:19.626Z,98985
2018-05-17T04:37:25.941Z,99013
2018-05-17T04:39:32.253Z,99005
2018-05-17T04:41:37.798Z,98992
2018-05-17T04:43:43.485Z,99001
2018-05-17T04:45:49.641Z,99026
2018-05-17T04:47:54.936Z,99001
2018-05-17T04:50:00.151Z,99013
2018-05-17T04:52:06.287Z,99019
2018-05-17T04:54:15.513Z,99021
2018-05-17T04:56:23.158Z,99012
2018-05-17T04:58:28.699Z,99028
2018-05-17T05:00:34.024Z,99024
2018-05-17T05:02:40.084Z,99029
2018-05-17T05:04:45.648Z,99031
2018-05-17T05:06:50.806Z,99019
2018-05-17T05:08:56.569Z,99027
2018-05-17T05:11:02.179Z,99020
2018-05-17T05:13:07.972Z,99016
2018-05-17T05:15:16.077Z,99037
2018-05-17T05:17:23.079Z,99024
2018-05-17T05:19:28.729Z,99030
2018-05-17T05:21:34.838Z,99024
2018-05-17T05:23:40.536Z,99034
2018-05-17T05:25:45.719Z,99033
2018-05-17T05:27:51.542Z,99028
2018-05-17T05:29:57.721Z,99036
2018-05-17T05:32:04.305Z,99035
2018-05-17T05:34:10.831Z,99054
2018-05-17T05:36:19.088Z,99050
2018-05-17T05:38:25.213Z,99033
2018-05-17T05:40:30.798Z,99050
2018-05-17T05:42:36.415Z,99071
2018-05-17T05:44:41.644Z,99065
2018-05-17T05:46:47.063Z,99072
2018-05-17T05:48:52.815Z,99062
2018-05-17T05:50:57.950Z,99082
2018-05-17T05:53:03.716Z,99075
2018-05-17T05:55:11.780Z,99059
2018-05-17T05:57:19.520Z,99069
2018-05-17T05:59:25.294Z,99063
2018-05-17T06:01:30.825Z,99058
2018-05-17T06:03:36.745Z,99065
2018-05-17T06:05:42.030Z,99084
2018-05-17T06:07:48.061Z,99100
2018-05-17T06:09:53.337Z,99071
2018-05-17T06:11:58.974Z,99063
2018-05-17T06:14:04.816Z,99092
2018-05-17T06:16:13.548Z,99090
2018-05-17T06:18:20.275Z,99081
2018-05-17T06:20:27.766Z,99076
2018-05-17T06:22:32.934Z,99083
2018-05-17T06:24:38.008Z,99073
2018-05-17T06:26:43.633Z,99134
2018-05-17T06:28:49.106Z,99088
2018-05-17T06:30:54.314Z,99130
2018-05-17T06:33:01.280Z,99094
2018-05-17T06:35:07.167Z,99093
2018-05-17T06:37:15.722Z,99110
2018-05-17T06:39:24.701Z,99087
2018-05-17T06:41:30.041Z,99120
2018-05-17T06:43:35.294Z,99094
2018-05-17T06:45:40.938Z,99087
2018-05-17T06:47:46.089Z,99084
2018-05-17T06:49:51.367Z,99090
2018-05-17T06:51:56.803Z,99104
2018-05-17T06:54:02.137Z,99091
2018-05-17T06:56:09.290Z,99120
2018-05-17T06:58:17.196Z,99099
2018-05-17T07:00:23.248Z,99133
2018-05-17T07:02:29.346Z,99142
2018-05-17T07:04:35.350Z,99100
2018-05-17T07:06:40.505Z,99113
2018-05-17T07:08:46.352Z,99110
2018-05-17T07:10:52.587Z,99127
2018-05-17T07:13:00.147Z,99108
2018-05-17T07:15:06.498Z,99086
2018-05-17T07:17:15.345Z,99108
2018-05-17T07:19:22.377Z,99135
2018-05-17T07:21:33.220Z,99124
2018-05-17T07:23:38.683Z,99117
2018-05-17T07:25:49.550Z,99102
2018-05-17T07:27:55.201Z,99109
2018-05-17T07:30:00.719Z,99111
2018-05-17T07:32:06.724Z,99131
2018-05-17T07:34:14.905Z,99123
2018-05-17T07:36:22.161Z,99127
2018-05-17T07:38:27.684Z,99136
2018-05-17T07:40:32.987Z,99150
2018-05-17T07:42:38.442Z,99145
2018-05-17T07:44:43.627Z,99116
2018-05-17T07:46:48.892Z,99099
2018-05-17T07:48:54.378Z,99124
2018-05-17T07:50:59.629Z,99135
2018-05-17T07:53:05.008Z,99127
2018-05-17T07:55:13.586Z,99130
2018-05-17T07:57:21.234Z,99122
2018-05-17T07:59:27.864Z,99129
2018-05-17T08:01:34.022Z,99125
2018-05-17T08:03:39.245Z,99125
2018-05-17T08:05:44.446Z,99134
2018-05-17T08:07:50.659Z,99144
2018-05-17T08:09:56.523Z,99162
2018-05-17T08:12:02.659Z,99144
2018-05-17T08:14:09.939Z,99148
2018-05-17T08:16:17.300Z,99157
2018-05-17T08:18:23.422Z,99149
2018-05-17T08:20:29.863Z,99138
2018-05-17T08:22:35.200Z,99129
2018-05-17T08:24:41.007Z,99158
2018-05-17T08:26:46.953Z,99140
2018-05-17T08:28:52.274Z,99135
2018-05-17T08:30:57.494Z,99147
2018-05-17T08:33:03.645Z,99129
2018-05-17T08:35:10.965Z,99159
2018-05-17T08:37:18.066Z,99130
2018-05-17T08:39:24.222Z,99169
2018-05-17T08:41:30.043Z,99148
2018-05-17T08:43:35.711Z,99147
2018-05-17T08:45:42.094Z,99140
2018-05-17T08:47:47.429Z,99152
2018-05-17T08:49:52.849Z,99161
2018-05-17T08:51:58.294Z,99140
2018-05-17T08:54:03.500Z,99168
2018-05-17T08:56:10.424Z,99173
2018-05-17T08:58:19.564Z,99148
2018-05-17T09:00:25.617Z,99144
2018-05-17T09:02:31.550Z,99154
2018-05-17T09:04:37.137Z,99177
2018-05-17T09:06:43.598Z,99165
2018-05-17T09:08:49.375Z,99178
2018-05-17T09:10:59.669Z,99190
2018-05-17T09:13:08.226Z,99173
2018-05-17T09:15:17.527Z,99192
2018-05-17T09:17:25.380Z,99158
2018-05-17T09:19:32.553Z,99166
2018-05-17T09:21:38.795Z,99169
2018-05-17T09:23:45.351Z,99171
2018-05-17T09:25:51.311Z,99197
2018-05-17T09:27:58.741Z,99179
2018-05-17T09:30:08.936Z,99171
2018-05-17T09:32:17.170Z,99179
2018-05-17T09:34:25.660Z,99204
2018-05-17T09:36:31.975Z,99201
2018-05-17T09:38:45.378Z,99171
2018-05-17T09:40:53.202Z,99183
2018-05-17T09:43:00.232Z,99182
2018-05-17T09:48:22.590Z,99184
2018-05-17T09:50:31.138Z,99191
2018-05-17T09:52:37.817Z,99188
2018-05-17T09:54:49.678Z,99185
2018-05-17T09:56:56.583Z,99178
2018-05-17T09:59:04.208Z,99169
2018-05-17T10:01:20.138Z,99192
2018-05-17T10:03:26.561Z,99194
2018-05-17T10:05:36.916Z,99196
2018-05-17T10:07:46.200Z,99193
2018-05-17T10:09:57.741Z,99186
2018-05-17T10:12:03.697Z,99185
2018-05-17T10:15:36.129Z,99198
2018-05-17T10:17:42.439Z,99198
2018-05-17T10:19:50.330Z,99200
2018-05-17T10:21:57.242Z,99204
2018-05-17T10:24:03.602Z,99179
2018-05-17T10:26:15.915Z,99192
2018-05-17T10:28:24.999Z,99201
2018-05-17T10:30:33.170Z,99202
2018-05-17T10:32:39.525Z,99181
2018-05-17T10:34:46.738Z,99176
2018-05-17T10:36:52.488Z,99173
2018-05-17T10:38:58.812Z,99164
2018-05-17T10:41:07.269Z,99189
2018-05-17T10:43:17.651Z,99182
2018-05-17T10:45:25.900Z,99187
2018-05-17T10:47:32.729Z,99173
2018-05-17T10:49:38.910Z,99170
2018-05-17T10:51:44.869Z,99183
2018-05-17T10:53:50.449Z,99208
2018-05-17T10:55:56.338Z,99192
2018-05-17T10:58:02.271Z,99191
2018-05-17T11:00:10.630Z,99213
2018-05-17T11:02:20.588Z,99197
2018-05-17T11:04:27.471Z,99204
2018-05-17T11:06:33.272Z,99185
2018-05-17T11:08:39.309Z,99188
2018-05-17T11:10:45.211Z,99188
2018-05-17T11:12:50.562Z,99208
2018-05-17T11:14:55.858Z,99182
2018-05-17T11:17:01.840Z,99200
2018-05-17T11:19:08.520Z,99199
2018-05-17T11:21:16.935Z,99185
2018-05-17T11:23:24.742Z,99208
2018-05-17T11:25:30.801Z,99227
2018-05-17T11:27:36.304Z,99198
2018-05-17T11:29:41.947Z,99211
2018-05-17T11:31:47.865Z,99193
2018-05-17T11:33:53.567Z,99226
2018-05-17T11:36:01.927Z,99185
2018-05-17T11:38:08.501Z,99179
2018-05-17T11:40:16.670Z,99216
2018-05-17T11:42:24.395Z,99190
2018-05-17T11:44:30.002Z,99213
2018-05-17T11:46:35.629Z,99210
2018-05-17T11:48:41.301Z,99200
2018-05-17T11:50:46.626Z,99199
2018-05-17T11:52:52.143Z,99201
2018-05-17T11:54:57.928Z,99207
2018-05-17T11:57:03.324Z,99228
2018-05-17T11:59:12.703Z,99196
2018-05-17T12:01:19.359Z,99201
2018-05-17T12:03:25.011Z,99189
2018-05-17T12:05:30.533Z,99203
2018-05-17T12:07:40.095Z,99228
2018-05-17T12:09:45.385Z,99220
2018-05-17T12:11:50.606Z,99247
2018-05-17T12:13:56.178Z,99215
2018-05-17T12:16:01.797Z,99234
2018-05-17T12:18:08.328Z,99205
2018-05-17T12:20:16.646Z,99215
2018-05-17T12:22:24.986Z,99192
2018-05-17T12:24:30.263Z,99245
2018-05-17T12:26:35.850Z,99205
2018-05-17T12:28:41.230Z,99207
2018-05-17T12:30:46.565Z,99212
2018-05-17T12:32:52.225Z,99214
2018-05-17T12:34:57.678Z,99202
2018-05-17T12:37:03.159Z,99229
2018-05-17T12:39:11.755Z,99220
2018-05-17T12:41:18.709Z,99206
2018-05-17T12:43:25.670Z,99246
2018-05-17T12:45:31.343Z,99246
2018-05-17T12:47:36.642Z,99238
2018-05-17T12:49:42.030Z,99215
2018-05-17T12:51:47.554Z,99199
2018-05-17T12:53:52.702Z,99224
2018-05-17T12:55:58.085Z,99212
2018-05-17T13:00:16.204Z,99206
2018-05-17T13:04:34.818Z,99203
2018-05-17T13:06:40.052Z,99220
2018-05-17T13:08:45.286Z,99213
2018-05-17T13:10:50.862Z,99213
2018-05-17T13:12:56.303Z,99237
2018-05-17T13:15:02.022Z,99235
2018-05-17T13:17:08.344Z,99194
2018-05-17T13:19:16.571Z,99220
2018-05-17T13:21:22.812Z,99235
2018-05-17T13:23:28.358Z,99241
2018-05-17T13:25:33.583Z,99205
2018-05-17T13:27:39.893Z,99235
2018-05-17T13:29:45.691Z,99250
2018-05-17T13:31:50.905Z,99214
2018-05-17T13:33:56.145Z,99227
2018-05-17T13:36:02.641Z,99180
2018-05-17T13:38:09.111Z,99192
2018-05-17T13:40:17.112Z,99217
2018-05-17T13:42:25.227Z,99194
2018-05-17T13:44:30.879Z,99190
2018-05-17T13:46:36.156Z,99174
2018-05-17T13:48:41.649Z,99167
2018-05-17T13:50:47.354Z,99160
2018-05-17T13:52:52.574Z,99168
2018-05-17T13:54:57.998Z,99182
2018-05-17T13:57:04.147Z,99206
2018-05-17T13:59:12.059Z,99168
2018-05-17T14:01:19.680Z,99174
2018-05-17T14:03:25.223Z,99167
2018-05-17T14:05:30.477Z,99158
2018-05-17T14:07:35.998Z,99197
2018-05-17T14:09:41.272Z,99160
2018-05-17T14:11:46.369Z,99179
2018-05-17T14:13:51.854Z,99164
2018-05-17T14:15:57.170Z,99175
2018-05-17T14:18:03.144Z,99153
2018-05-17T14:20:12.076Z,99166
2018-05-17T14:22:20.937Z,99176
2018-05-17T14:24:26.714Z,99161
2018-05-17T14:26:32.410Z,99170
2018-05-17T14:28:37.698Z,99183
2018-05-17T14:30:42.922Z,99188
2018-05-17T14:32:48.828Z,99168
2018-05-17T14:34:54.122Z,99191
2018-05-17T14:37:00.419Z,99163
2018-05-17T14:39:07.739Z,99173
2018-05-17T14:41:16.088Z,99171
2018-05-17T14:43:22.582Z,99173
2018-05-17T14:45:28.362Z,99178
2018-05-17T14:47:33.674Z,99169
2018-05-17T14:49:39.401Z,99182
2018-05-17T14:51:45.031Z,99182
2018-05-17T14:53:50.379Z,99171
2018-05-17T14:55:55.786Z,99180
2018-05-17T14:58:03.705Z,99165
2018-05-17T15:00:11.484Z,99179
2018-05-17T15:02:18.279Z,99176
2018-05-17T15:04:25.780Z,99191
2018-05-17T15:06:31.351Z,99204
2018-05-17T15:08:36.876Z,99176
2018-05-17T15:10:42.387Z,99170
2018-05-17T15:12:47.822Z,99198
2018-05-17T15:14:53.090Z,99166
2018-05-17T15:16:58.618Z,99175
2018-05-17T15:19:03.776Z,99180
2018-05-17T15:21:14.803Z,99177
2018-05-17T15:23:21.585Z,99171
2018-05-17T15:25:27.602Z,99165
2018-05-17T15:27:32.992Z,99185
2018-05-17T15:29:38.600Z,99186
2018-05-17T15:31:43.921Z,99199
2018-05-17T15:33:49.338Z,99184
2018-05-17T15:35:55.283Z,99177
2018-05-17T15:38:00.852Z,99199
2018-05-17T15:40:08.915Z,99178
2018-05-17T15:42:17.199Z,99173
2018-05-17T15:44:24.547Z,99178
2018-05-17T15:46:29.822Z,99217
2018-05-17T15:48:35.654Z,99196
2018-05-17T15:50:40.889Z,99177
2018-05-17T15:52:46.315Z,99184
2018-05-17T15:54:51.826Z,99188
2018-05-17T15:56:57.112Z,99193
2018-05-17T15:59:02.343Z,99178
2018-05-17T16:01:09.234Z,99174
2018-05-17T16:03:17.775Z,99184
2018-05-17T16:05:23.669Z,99194
2018-05-17T16:07:29.411Z,99170
2018-05-17T16:09:34.735Z,99182
2018-05-17T16:11:40.129Z,99161
2018-05-17T16:13:45.741Z,99185
2018-05-17T16:15:51.671Z,99174
2018-05-17T16:17:56.989Z,99191
2018-05-17T16:20:02.614Z,99173
2018-05-17T16:22:09.619Z,99182
2018-05-17T16:24:18.522Z,99175
2018-05-17T16:26:25.682Z,99167
2018-05-17T16:28:30.802Z,99166
2018-05-17T16:30:35.957Z,99166
2018-05-17T16:32:41.515Z,99175
2018-05-17T16:34:47.658Z,99188
2018-05-17T16:36:53.026Z,99189
2018-05-17T16:38:58.595Z,99177
2018-05-17T16:41:03.911Z,99181
2018-05-17T16:43:11.653Z,99198
2018-05-17T16:45:19.946Z,99185
2018-05-17T16:47:27.609Z,99208
2018-05-17T16:49:32.840Z,99187
2018-05-17T16:51:38.253Z,99182
2018-05-17T16:53:43.551Z,99188
2018-05-17T16:55:48.794Z,99197
2018-05-17T16:57:54.468Z,99196
2018-05-17T17:00:00.483Z,99198
2018-05-17T17:02:06.543Z,99193
2018-05-17T17:04:15.927Z,99207
2018-05-17T17:06:22.068Z,99205
2018-05-17T17:08:27.311Z,99219
2018-05-17T17:10:32.830Z,99210
2018-05-17T17:12:39.217Z,99221
2018-05-17T17:14:45.193Z,99196
2018-05-17T17:16:51.136Z,99199
2018-05-17T17:18:56.677Z,99199
2018-05-17T17:21:02.057Z,99207
2018-05-17T17:23:09.118Z,99199
2018-05-17T17:25:16.749Z,99195
2018-05-17T17:27:24.405Z,99207
2018-05-17T17:29:30.047Z,99214
2018-05-17T17:31:35.482Z,99211
2018-05-17T17:33:41.094Z,99208
2018-05-17T17:35:47.077Z,99205
2018-05-17T17:37:52.667Z,99213
2018-05-17T17:39:58.811Z,99210
2018-05-17T17:42:04.429Z,99222
2018-05-17T17:44:12.696Z,99211
2018-05-17T17:46:20.594Z,99207
2018-05-17T17:48:26.709Z,99211
2018-05-17T17:50:32.839Z,99217
2018-05-17T17:52:38.878Z,99212
2018-05-17T17:54:44.685Z,99209
2018-05-17T17:56:50.230Z,99205
2018-05-17T17:58:56.315Z,99202
2018-05-17T18:01:03.027Z,99221
2018-05-17T18:03:10.913Z,99208
2018-05-17T18:05:19.974Z,99215
2018-05-17T18:07:26.977Z,99210
2018-05-17T18:09:34.118Z,99227
2018-05-17T18:11:40.113Z,99211
2018-05-17T18:13:46.119Z,99227
2018-05-17T18:15:51.560Z,99230
2018-05-17T18:17:57.226Z,99227
2018-05-17T18:20:02.998Z,99223
2018-05-17T18:22:09.880Z,99218
2018-05-17T18:24:18.210Z,99213
2018-05-17T18:26:25.013Z,99212
2018-05-17T18:28:31.650Z,99229
2018-05-17T18:30:37.527Z,99211
2018-05-17T18:32:43.735Z,99214
2018-05-17T18:34:49.140Z,99214
2018-05-17T18:36:55.609Z,99219
2018-05-17T18:39:03.342Z,99218
2018-05-17T18:41:12.015Z,99221
2018-05-17T18:43:19.204Z,99219
2018-05-17T18:45:26.021Z,99220
2018-05-17T18:47:31.621Z,99227
2018-05-17T18:49:37.153Z,99229
2018-05-17T18:51:42.773Z,99233
2018-05-17T18:53:49.006Z,99234
2018-05-17T18:55:54.552Z,99230
2018-05-17T18:58:00.369Z,99236
2018-05-17T19:00:07.149Z,99239
2018-05-17T19:02:16.206Z,99235
2018-05-17T19:04:25.745Z,99243
2018-05-17T19:06:31.302Z,99255
2018-05-17T19:08:36.904Z,99256
2018-05-17T19:10:42.629Z,99258
2018-05-17T19:12:48.622Z,99258
2018-05-17T19:15:56.718Z,99260
2018-05-17T19:18:03.433Z,99259
2018-05-17T19:20:11.285Z,99269
2018-05-17T19:22:17.906Z,99267
2018-05-17T19:24:24.694Z,99274
2018-05-17T19:26:30.646Z,99283
2018-05-17T19:28:35.990Z,99279
2018-05-17T19:30:41.869Z,99291
2018-05-17T19:32:47.078Z,99296
2018-05-17T19:34:52.281Z,99297
2018-05-17T19:36:57.987Z,99298
2018-05-17T19:39:03.597Z,99300
2018-05-17T19:41:11.108Z,99300
2018-05-17T19:43:18.867Z,99305
2018-05-17T19:45:24.409Z,99303
2018-05-17T19:47:30.342Z,99311
2018-05-17T19:49:35.981Z,99303
2018-05-17T19:51:41.719Z,99316
2018-05-17T19:53:47.463Z,99321
2018-05-17T19:55:53.164Z,99323
2018-05-17T19:57:58.379Z,99325
2018-05-17T20:00:03.715Z,99332
2018-05-17T20:02:11.979Z,99329
2018-05-17T20:04:21.122Z,99335
2018-05-17T20:06:26.533Z,99330
2018-05-17T20:08:33.117Z,99333
2018-05-17T20:10:38.562Z,99331
2018-05-17T20:12:44.166Z,99331
2018-05-17T20:14:49.634Z,99341
2018-05-17T20:16:54.857Z,99335
2018-05-17T20:19:00.055Z,99336
2018-05-17T20:21:06.084Z,99335
2018-05-17T20:23:14.486Z,99342
2018-05-17T20:25:21.623Z,99344
2018-05-17T20:27:27.376Z,99349
2018-05-17T20:29:32.617Z,99341
2018-05-17T20:31:37.777Z,99350
2018-05-17T20:33:43.253Z,99349
2018-05-17T20:35:48.489Z,99358
2018-05-17T20:37:53.613Z,99357
2018-05-17T20:39:59.034Z,99358
2018-05-17T20:42:04.237Z,99356
2018-05-17T20:44:12.211Z,99361
2018-05-17T20:46:20.857Z,99370
2018-05-17T20:48:26.346Z,99371
2018-05-17T20:50:31.550Z,99367
2018-05-17T20:52:37.121Z,99369
2018-05-17T20:54:42.494Z,99369
2018-05-17T20:56:47.618Z,99375
2018-05-17T20:58:53.103Z,99379
2018-05-17T21:00:58.289Z,99379
2018-05-17T21:03:04.136Z,99377
2018-05-17T21:05:12.472Z,99380
2018-05-17T21:07:19.239Z,99382
2018-05-17T21:09:24.971Z,99384
2018-05-17T21:11:30.620Z,99380
2018-05-17T21:13:35.868Z,99388
2018-05-17T21:15:41.266Z,99393
2018-05-17T21:17:47.641Z,99389
2018-05-17T21:19:52.818Z,99397
2018-05-17T21:21:57.968Z,99408
2018-05-17T21:24:03.942Z,99405
2018-05-17T21:26:11.864Z,99393
2018-05-17T21:28:18.213Z,99410
2018-05-17T21:30:24.091Z,99403
2018-05-17T21:32:30.711Z,99401
2018-05-17T21:34:36.374Z,99405
2018-05-17T21:36:41.867Z,99413
2018-05-17T21:38:47.742Z,99408
2018-05-17T21:40:53.055Z,99407
2018-05-17T21:42:58.726Z,99402
2018-05-17T21:45:04.121Z,99407
2018-05-17T21:47:12.403Z,99401
2018-05-17T21:49:22.604Z,99417
2018-05-17T21:51:28.077Z,99413
2018-05-17T21:53:34.164Z,99426
2018-05-17T21:55:39.649Z,99421
2018-05-17T21:57:46.058Z,99412
2018-05-17T21:59:51.825Z,99415
2018-05-17T22:01:57.341Z,99412
2018-05-17T22:04:04.376Z,99409
2018-05-17T22:06:13.840Z,99413
2018-05-17T22:08:21.616Z,99409
2018-05-17T22:10:27.422Z,99411
2018-05-17T22:12:32.796Z,99425
2018-05-17T22:14:38.452Z,99411
2018-05-17T22:16:44.438Z,99413
2018-05-17T22:18:49.758Z,99417
2018-05-17T22:20:55.315Z,99407
2018-05-17T22:23:01.055Z,99408
2018-05-17T22:25:07.055Z,99414
2018-05-17T22:27:15.825Z,99399
2018-05-17T22:29:23.953Z,99407
2018-05-17T22:31:29.165Z,99403
2018-05-17T22:33:34.573Z,99397
2018-05-17T22:35:40.349Z,99391
2018-05-17T22:37:46.671Z,99396
2018-05-17T22:39:52.391Z,99395
2018-05-17T22:41:57.553Z,99399
2018-05-17T22:44:02.699Z,99408
2018-05-17T22:46:10.992Z,99411
2018-05-17T22:48:18.541Z,99412
2018-05-17T22:50:25.437Z,99420
2018-05-17T22:52:31.290Z,99414
2018-05-17T22:54:36.477Z,99419
2018-05-17T22:56:50.911Z,99414
2018-05-17T22:58:57.724Z,99418
2018-05-17T23:01:03.743Z,99423
2018-05-17T23:03:11.839Z,99418
2018-05-17T23:05:18.724Z,99424
2018-05-17T23:07:26.312Z,99423
2018-05-17T23:09:31.442Z,99421
2018-05-17T23:11:37.730Z,99420
2018-05-17T23:13:43.616Z,99435
2018-05-17T23:15:48.810Z,99443
2018-05-17T23:17:54.949Z,99421
2018-05-17T23:20:00.794Z,99431
2018-05-17T23:22:07.464Z,99425
2018-05-17T23:24:17.296Z,99437
2018-05-17T23:26:24.564Z,99425
2018-05-17T23:28:30.226Z,99426
2018-05-17T23:30:36.513Z,99417
2018-05-17T23:32:42.306Z,99407
2018-05-17T23:34:47.497Z,99421
2018-05-17T23:36:53.792Z,99411
2018-05-17T23:38:59.787Z,99416
2018-05-17T23:41:15.913Z,99411
2018-05-17T23:43:23.564Z,99417
2018-05-17T23:45:29.253Z,99411
2018-05-17T23:47:35.133Z,99421
2018-05-17T23:49:41.346Z,99416
2018-05-17T23:51:47.747Z,99417
2018-05-17T23:53:52.942Z,99418
2018-05-17T23:55:59.107Z,99415
2018-05-17T23:58:04.921Z,99415
